sensor_id;sensor_type;location;lat;lon;timestamp;P1;durP1;ratioP1;P2;durP2;ratioP2
69542;SDS011;56762;49.494;11.768;2023-03-16T00:00:55;40.13;;;6.78;;
69542;SDS011;56762;49.494;11.768;2023-03-16T00:03:23;20.05;;;5.80;;
69542;SDS011;56762;49.494;11.768;2023-03-16T00:05:55;23.33;;;5.22;;
69542;SDS011;56762;49.494;11.768;2023-03-16T00:08:23;22.80;;;4.20;;
69542;SDS011;56762;49.494;11.768;2023-03-16T00:10:52;14.00;;;3.97;;
69542;SDS011;56762;49.494;11.768;2023-03-16T00:13:22;19.67;;;4.22;;
69542;SDS011;56762;49.494;11.768;2023-03-16T00:15:51;11.63;;;3.97;;
69542;SDS011;56762;49.494;11.768;2023-03-16T00:18:20;14.88;;;5.05;;
69542;SDS011;56762;49.494;11.768;2023-03-16T00:20:52;15.73;;;5.07;;
69542;SDS011;56762;49.494;11.768;2023-03-16T00:23:22;19.08;;;4.57;;
69542;SDS011;56762;49.494;11.768;2023-03-16T00:25:52;18.60;;;5.43;;
69542;SDS011;56762;49.494;11.768;2023-03-16T00:28:22;39.50;;;10.98;;
69542;SDS011;56762;49.494;11.768;2023-03-16T00:30:51;16.48;;;4.68;;
69542;SDS011;56762;49.494;11.768;2023-03-16T00:33:24;42.47;;;12.90;;
69542;SDS011;56762;49.494;11.768;2023-03-16T00:35:52;17.88;;;6.93;;
69542;SDS011;56762;49.494;11.768;2023-03-16T00:38:28;65.55;;;20.63;;
69542;SDS011;56762;49.494;11.768;2023-03-16T00:40:56;87.97;;;28.45;;
69542;SDS011;56762;49.494;11.768;2023-03-16T00:43:26;56.70;;;17.58;;
69542;SDS011;56762;49.494;11.768;2023-03-16T00:45:57;62.23;;;19.23;;
69542;SDS011;56762;49.494;11.768;2023-03-16T00:48:26;29.27;;;10.43;;
69542;SDS011;56762;49.494;11.768;2023-03-16T00:50:54;24.10;;;6.32;;
69542;SDS011;56762;49.494;11.768;2023-03-16T00:53:22;19.45;;;5.80;;
69542;SDS011;56762;49.494;11.768;2023-03-16T00:55:50;13.10;;;4.88;;
69542;SDS011;56762;49.494;11.768;2023-03-16T00:58:18;9.70;;;3.87;;
69542;SDS011;56762;49.494;11.768;2023-03-16T01:00:47;11.95;;;4.90;;
69542;SDS011;56762;49.494;11.768;2023-03-16T01:03:16;11.57;;;4.00;;
69542;SDS011;56762;49.494;11.768;2023-03-16T01:05:44;11.95;;;4.50;;
69542;SDS011;56762;49.494;11.768;2023-03-16T01:08:12;11.93;;;4.13;;
69542;SDS011;56762;49.494;11.768;2023-03-16T01:10:40;14.43;;;5.23;;
69542;SDS011;56762;49.494;11.768;2023-03-16T01:13:08;11.38;;;4.68;;
69542;SDS011;56762;49.494;11.768;2023-03-16T01:15:36;13.48;;;5.13;;
69542;SDS011;56762;49.494;11.768;2023-03-16T01:18:06;17.90;;;5.18;;
69542;SDS011;56762;49.494;11.768;2023-03-16T01:20:34;17.40;;;6.70;;
69542;SDS011;56762;49.494;11.768;2023-03-16T01:23:01;23.10;;;7.67;;
69542;SDS011;56762;49.494;11.768;2023-03-16T01:25:29;14.07;;;5.30;;
69542;SDS011;56762;49.494;11.768;2023-03-16T01:27:57;17.08;;;5.45;;
69542;SDS011;56762;49.494;11.768;2023-03-16T01:30:26;13.00;;;5.57;;
69542;SDS011;56762;49.494;11.768;2023-03-16T01:32:55;20.83;;;7.00;;
69542;SDS011;56762;49.494;11.768;2023-03-16T01:35:24;33.23;;;10.33;;
69542;SDS011;56762;49.494;11.768;2023-03-16T01:37:52;32.60;;;10.63;;
69542;SDS011;56762;49.494;11.768;2023-03-16T01:40:20;41.55;;;10.88;;
69542;SDS011;56762;49.494;11.768;2023-03-16T01:42:48;25.42;;;7.85;;
69542;SDS011;56762;49.494;11.768;2023-03-16T01:48:31;24.33;;;8.73;;
69542;SDS011;56762;49.494;11.768;2023-03-16T01:51:05;26.83;;;9.13;;
69542;SDS011;56762;49.494;11.768;2023-03-16T01:53:35;30.00;;;9.02;;
69542;SDS011;56762;49.494;11.768;2023-03-16T01:56:06;14.55;;;5.63;;
69542;SDS011;56762;49.494;11.768;2023-03-16T01:58:36;19.52;;;6.15;;
69542;SDS011;56762;49.494;11.768;2023-03-16T02:01:05;20.83;;;7.07;;
69542;SDS011;56762;49.494;11.768;2023-03-16T02:03:33;28.38;;;7.95;;
69542;SDS011;56762;49.494;11.768;2023-03-16T02:06:05;43.47;;;12.13;;
69542;SDS011;56762;49.494;11.768;2023-03-16T02:08:38;40.80;;;11.70;;
69542;SDS011;56762;49.494;11.768;2023-03-16T02:11:08;45.55;;;13.38;;
69542;SDS011;56762;49.494;11.768;2023-03-16T02:13:36;57.03;;;19.13;;
69542;SDS011;56762;49.494;11.768;2023-03-16T02:16:04;45.22;;;15.48;;
69542;SDS011;56762;49.494;11.768;2023-03-16T02:18:33;38.03;;;12.27;;
69542;SDS011;56762;49.494;11.768;2023-03-16T02:21:03;17.80;;;6.55;;
69542;SDS011;56762;49.494;11.768;2023-03-16T02:23:41;13.30;;;5.20;;
69542;SDS011;56762;49.494;11.768;2023-03-16T02:26:10;12.20;;;4.37;;
69542;SDS011;56762;49.494;11.768;2023-03-16T02:28:49;12.88;;;5.03;;
69542;SDS011;56762;49.494;11.768;2023-03-16T02:31:30;37.17;;;12.60;;
69542;SDS011;56762;49.494;11.768;2023-03-16T02:33:59;26.13;;;9.52;;
69542;SDS011;56762;49.494;11.768;2023-03-16T02:36:27;28.85;;;8.43;;
69542;SDS011;56762;49.494;11.768;2023-03-16T02:38:57;14.93;;;5.97;;
69542;SDS011;56762;49.494;11.768;2023-03-16T02:41:25;12.93;;;5.18;;
69542;SDS011;56762;49.494;11.768;2023-03-16T02:43:54;11.18;;;4.47;;
69542;SDS011;56762;49.494;11.768;2023-03-16T02:46:27;42.60;;;12.40;;
69542;SDS011;56762;49.494;11.768;2023-03-16T02:48:58;21.58;;;7.07;;
69542;SDS011;56762;49.494;11.768;2023-03-16T02:51:29;18.30;;;6.03;;
69542;SDS011;56762;49.494;11.768;2023-03-16T02:53:58;25.67;;;8.75;;
69542;SDS011;56762;49.494;11.768;2023-03-16T02:56:26;41.85;;;13.20;;
69542;SDS011;56762;49.494;11.768;2023-03-16T02:58:53;17.35;;;6.40;;
69542;SDS011;56762;49.494;11.768;2023-03-16T03:01:22;13.95;;;4.85;;
69542;SDS011;56762;49.494;11.768;2023-03-16T03:03:50;15.33;;;5.17;;
69542;SDS011;56762;49.494;11.768;2023-03-16T03:06:19;12.30;;;4.70;;
69542;SDS011;56762;49.494;11.768;2023-03-16T03:08:47;14.63;;;5.65;;
69542;SDS011;56762;49.494;11.768;2023-03-16T03:11:15;24.00;;;8.57;;
69542;SDS011;56762;49.494;11.768;2023-03-16T03:13:45;28.33;;;9.32;;
69542;SDS011;56762;49.494;11.768;2023-03-16T03:16:13;75.43;;;27.83;;
69542;SDS011;56762;49.494;11.768;2023-03-16T03:18:41;62.13;;;19.85;;
69542;SDS011;56762;49.494;11.768;2023-03-16T03:21:09;23.58;;;7.40;;
69542;SDS011;56762;49.494;11.768;2023-03-16T03:23:39;32.35;;;9.65;;
69542;SDS011;56762;49.494;11.768;2023-03-16T03:26:07;29.75;;;9.95;;
69542;SDS011;56762;49.494;11.768;2023-03-16T03:28:35;19.30;;;6.33;;
69542;SDS011;56762;49.494;11.768;2023-03-16T03:31:02;24.35;;;6.68;;
69542;SDS011;56762;49.494;11.768;2023-03-16T03:33:30;16.77;;;5.47;;
69542;SDS011;56762;49.494;11.768;2023-03-16T03:35:59;15.25;;;5.70;;
69542;SDS011;56762;49.494;11.768;2023-03-16T03:38:27;18.40;;;5.97;;
69542;SDS011;56762;49.494;11.768;2023-03-16T03:40:56;24.20;;;6.03;;
69542;SDS011;56762;49.494;11.768;2023-03-16T03:43:25;42.50;;;14.93;;
69542;SDS011;56762;49.494;11.768;2023-03-16T03:45:56;42.70;;;14.05;;
69542;SDS011;56762;49.494;11.768;2023-03-16T03:48:24;70.18;;;24.73;;
69542;SDS011;56762;49.494;11.768;2023-03-16T03:50:52;72.45;;;24.23;;
69542;SDS011;56762;49.494;11.768;2023-03-16T03:53:20;48.90;;;17.57;;
69542;SDS011;56762;49.494;11.768;2023-03-16T03:55:48;29.60;;;11.55;;
69542;SDS011;56762;49.494;11.768;2023-03-16T03:58:17;38.33;;;10.95;;
69542;SDS011;56762;49.494;11.768;2023-03-16T04:00:45;44.95;;;13.77;;
69542;SDS011;56762;49.494;11.768;2023-03-16T04:03:13;42.60;;;12.98;;
69542;SDS011;56762;49.494;11.768;2023-03-16T04:05:42;24.47;;;7.23;;
69542;SDS011;56762;49.494;11.768;2023-03-16T04:08:10;20.98;;;7.82;;
69542;SDS011;56762;49.494;11.768;2023-03-16T04:10:38;27.90;;;9.27;;
69542;SDS011;56762;49.494;11.768;2023-03-16T04:13:06;22.55;;;8.45;;
69542;SDS011;56762;49.494;11.768;2023-03-16T04:15:36;16.80;;;7.07;;
69542;SDS011;56762;49.494;11.768;2023-03-16T04:18:04;21.17;;;7.07;;
69542;SDS011;56762;49.494;11.768;2023-03-16T04:20:35;19.17;;;6.45;;
69542;SDS011;56762;49.494;11.768;2023-03-16T04:23:03;15.63;;;5.32;;
69542;SDS011;56762;49.494;11.768;2023-03-16T04:25:31;19.67;;;6.72;;
69542;SDS011;56762;49.494;11.768;2023-03-16T04:28:00;18.45;;;7.10;;
69542;SDS011;56762;49.494;11.768;2023-03-16T04:30:27;18.43;;;6.17;;
69542;SDS011;56762;49.494;11.768;2023-03-16T04:32:57;19.00;;;6.22;;
69542;SDS011;56762;49.494;11.768;2023-03-16T04:35:26;17.13;;;5.50;;
69542;SDS011;56762;49.494;11.768;2023-03-16T04:37:54;15.25;;;5.10;;
69542;SDS011;56762;49.494;11.768;2023-03-16T04:40:22;16.08;;;5.15;;
69542;SDS011;56762;49.494;11.768;2023-03-16T04:42:51;13.80;;;5.13;;
69542;SDS011;56762;49.494;11.768;2023-03-16T04:45:19;12.13;;;4.60;;
69542;SDS011;56762;49.494;11.768;2023-03-16T04:47:47;12.10;;;4.45;;
69542;SDS011;56762;49.494;11.768;2023-03-16T04:50:16;14.75;;;5.10;;
69542;SDS011;56762;49.494;11.768;2023-03-16T04:52:44;14.43;;;5.65;;
69542;SDS011;56762;49.494;11.768;2023-03-16T04:55:12;14.37;;;4.97;;
69542;SDS011;56762;49.494;11.768;2023-03-16T04:57:40;13.90;;;4.68;;
69542;SDS011;56762;49.494;11.768;2023-03-16T05:00:09;11.68;;;4.75;;
69542;SDS011;56762;49.494;11.768;2023-03-16T05:02:44;10.13;;;3.63;;
69542;SDS011;56762;49.494;11.768;2023-03-16T05:05:12;12.18;;;4.50;;
69542;SDS011;56762;49.494;11.768;2023-03-16T05:07:41;13.30;;;5.03;;
69542;SDS011;56762;49.494;11.768;2023-03-16T05:10:10;12.05;;;4.50;;
69542;SDS011;56762;49.494;11.768;2023-03-16T05:12:40;10.57;;;4.18;;
69542;SDS011;56762;49.494;11.768;2023-03-16T05:15:08;8.32;;;3.33;;
69542;SDS011;56762;49.494;11.768;2023-03-16T05:17:37;10.90;;;3.80;;
69542;SDS011;56762;49.494;11.768;2023-03-16T05:20:07;9.13;;;3.47;;
69542;SDS011;56762;49.494;11.768;2023-03-16T05:22:52;12.43;;;5.47;;
69542;SDS011;56762;49.494;11.768;2023-03-16T05:25:20;13.00;;;5.18;;
69542;SDS011;56762;49.494;11.768;2023-03-16T05:27:49;11.15;;;4.47;;
69542;SDS011;56762;49.494;11.768;2023-03-16T05:30:19;11.00;;;4.68;;
69542;SDS011;56762;49.494;11.768;2023-03-16T05:32:47;10.77;;;4.50;;
69542;SDS011;56762;49.494;11.768;2023-03-16T05:35:16;9.10;;;4.45;;
69542;SDS011;56762;49.494;11.768;2023-03-16T05:37:45;9.68;;;4.20;;
69542;SDS011;56762;49.494;11.768;2023-03-16T05:40:14;9.50;;;4.15;;
69542;SDS011;56762;49.494;11.768;2023-03-16T05:42:43;11.20;;;4.40;;
69542;SDS011;56762;49.494;11.768;2023-03-16T05:45:15;11.47;;;4.50;;
69542;SDS011;56762;49.494;11.768;2023-03-16T05:47:43;10.25;;;4.05;;
69542;SDS011;56762;49.494;11.768;2023-03-16T05:50:13;10.48;;;3.97;;
69542;SDS011;56762;49.494;11.768;2023-03-16T05:52:44;10.38;;;3.92;;
69542;SDS011;56762;49.494;11.768;2023-03-16T05:55:15;8.80;;;3.95;;
69542;SDS011;56762;49.494;11.768;2023-03-16T05:57:44;10.07;;;3.50;;
69542;SDS011;56762;49.494;11.768;2023-03-16T06:00:13;9.70;;;3.78;;
69542;SDS011;56762;49.494;11.768;2023-03-16T06:02:45;8.70;;;3.28;;
69542;SDS011;56762;49.494;11.768;2023-03-16T06:05:16;9.52;;;3.38;;
69542;SDS011;56762;49.494;11.768;2023-03-16T06:07:47;9.00;;;3.35;;
69542;SDS011;56762;49.494;11.768;2023-03-16T06:10:17;10.47;;;3.97;;
69542;SDS011;56762;49.494;11.768;2023-03-16T06:12:45;10.20;;;3.80;;
69542;SDS011;56762;49.494;11.768;2023-03-16T06:15:13;12.38;;;4.30;;
69542;SDS011;56762;49.494;11.768;2023-03-16T06:17:41;9.35;;;4.05;;
69542;SDS011;56762;49.494;11.768;2023-03-16T06:20:10;11.93;;;5.07;;
69542;SDS011;56762;49.494;11.768;2023-03-16T06:22:40;11.43;;;3.73;;
69542;SDS011;56762;49.494;11.768;2023-03-16T06:25:10;12.63;;;4.63;;
69542;SDS011;56762;49.494;11.768;2023-03-16T06:27:40;12.82;;;4.97;;
69542;SDS011;56762;49.494;11.768;2023-03-16T06:30:09;11.60;;;4.40;;
69542;SDS011;56762;49.494;11.768;2023-03-16T06:32:38;13.73;;;4.50;;
69542;SDS011;56762;49.494;11.768;2023-03-16T06:35:08;11.77;;;3.83;;
69542;SDS011;56762;49.494;11.768;2023-03-16T06:37:36;11.25;;;3.85;;
69542;SDS011;56762;49.494;11.768;2023-03-16T06:40:05;9.98;;;4.90;;
69542;SDS011;56762;49.494;11.768;2023-03-16T06:42:34;12.32;;;4.40;;
69542;SDS011;56762;49.494;11.768;2023-03-16T06:45:03;11.00;;;5.03;;
69542;SDS011;56762;49.494;11.768;2023-03-16T06:47:32;12.47;;;5.00;;
69542;SDS011;56762;49.494;11.768;2023-03-16T06:50:00;11.43;;;4.32;;
69542;SDS011;56762;49.494;11.768;2023-03-16T06:52:28;10.93;;;4.03;;
69542;SDS011;56762;49.494;11.768;2023-03-16T06:54:55;13.63;;;5.15;;
69542;SDS011;56762;49.494;11.768;2023-03-16T06:57:24;11.93;;;4.90;;
69542;SDS011;56762;49.494;11.768;2023-03-16T06:59:52;16.60;;;6.10;;
69542;SDS011;56762;49.494;11.768;2023-03-16T07:02:21;16.08;;;5.18;;
69542;SDS011;56762;49.494;11.768;2023-03-16T07:04:49;14.65;;;5.78;;
69542;SDS011;56762;49.494;11.768;2023-03-16T07:07:17;10.85;;;4.28;;
69542;SDS011;56762;49.494;11.768;2023-03-16T07:09:45;12.00;;;4.63;;
69542;SDS011;56762;49.494;11.768;2023-03-16T07:12:13;11.93;;;4.40;;
69542;SDS011;56762;49.494;11.768;2023-03-16T07:14:41;15.52;;;6.43;;
69542;SDS011;56762;49.494;11.768;2023-03-16T07:17:09;15.00;;;5.97;;
69542;SDS011;56762;49.494;11.768;2023-03-16T07:19:38;12.82;;;5.30;;
69542;SDS011;56762;49.494;11.768;2023-03-16T07:22:06;17.67;;;5.90;;
69542;SDS011;56762;49.494;11.768;2023-03-16T07:24:34;14.13;;;6.63;;
69542;SDS011;56762;49.494;11.768;2023-03-16T07:27:02;17.35;;;6.50;;
69542;SDS011;56762;49.494;11.768;2023-03-16T07:29:30;13.18;;;5.82;;
69542;SDS011;56762;49.494;11.768;2023-03-16T07:31:57;14.35;;;6.18;;
69542;SDS011;56762;49.494;11.768;2023-03-16T07:34:25;12.00;;;5.93;;
69542;SDS011;56762;49.494;11.768;2023-03-16T07:36:55;13.47;;;5.50;;
69542;SDS011;56762;49.494;11.768;2023-03-16T07:39:23;11.95;;;5.25;;
69542;SDS011;56762;49.494;11.768;2023-03-16T07:41:51;13.02;;;5.63;;
69542;SDS011;56762;49.494;11.768;2023-03-16T07:44:18;11.70;;;4.55;;
69542;SDS011;56762;49.494;11.768;2023-03-16T07:46:46;11.77;;;4.65;;
69542;SDS011;56762;49.494;11.768;2023-03-16T07:49:14;15.87;;;6.53;;
69542;SDS011;56762;49.494;11.768;2023-03-16T07:51:43;11.90;;;5.20;;
69542;SDS011;56762;49.494;11.768;2023-03-16T07:54:12;13.65;;;5.15;;
69542;SDS011;56762;49.494;11.768;2023-03-16T07:56:42;10.00;;;4.45;;
69542;SDS011;56762;49.494;11.768;2023-03-16T07:59:14;12.32;;;4.88;;
69542;SDS011;56762;49.494;11.768;2023-03-16T08:01:46;10.47;;;4.53;;
69542;SDS011;56762;49.494;11.768;2023-03-16T08:04:14;11.63;;;5.13;;
69542;SDS011;56762;49.494;11.768;2023-03-16T08:06:41;11.10;;;4.97;;
69542;SDS011;56762;49.494;11.768;2023-03-16T08:09:09;12.02;;;4.95;;
69542;SDS011;56762;49.494;11.768;2023-03-16T08:11:38;8.05;;;4.60;;
69542;SDS011;56762;49.494;11.768;2023-03-16T08:14:06;8.83;;;4.20;;
69542;SDS011;56762;49.494;11.768;2023-03-16T08:16:34;11.25;;;5.50;;
69542;SDS011;56762;49.494;11.768;2023-03-16T08:19:02;12.25;;;6.80;;
69542;SDS011;56762;49.494;11.768;2023-03-16T08:21:30;9.75;;;5.22;;
69542;SDS011;56762;49.494;11.768;2023-03-16T08:24:03;11.85;;;6.13;;
69542;SDS011;56762;49.494;11.768;2023-03-16T08:26:31;12.80;;;5.87;;
69542;SDS011;56762;49.494;11.768;2023-03-16T08:29:03;13.15;;;5.82;;
69542;SDS011;56762;49.494;11.768;2023-03-16T08:31:31;11.52;;;5.13;;
69542;SDS011;56762;49.494;11.768;2023-03-16T08:34:00;13.27;;;5.85;;
69542;SDS011;56762;49.494;11.768;2023-03-16T08:36:28;12.63;;;6.10;;
69542;SDS011;56762;49.494;11.768;2023-03-16T08:38:57;9.63;;;4.37;;
69542;SDS011;56762;49.494;11.768;2023-03-16T08:41:32;10.98;;;4.22;;
69542;SDS011;56762;49.494;11.768;2023-03-16T08:44:01;9.63;;;4.47;;
69542;SDS011;56762;49.494;11.768;2023-03-16T08:46:29;9.48;;;4.50;;
69542;SDS011;56762;49.494;11.768;2023-03-16T08:48:57;8.75;;;4.53;;
69542;SDS011;56762;49.494;11.768;2023-03-16T08:51:26;8.50;;;4.03;;
69542;SDS011;56762;49.494;11.768;2023-03-16T08:53:54;7.75;;;4.18;;
69542;SDS011;56762;49.494;11.768;2023-03-16T08:56:22;8.00;;;3.97;;
69542;SDS011;56762;49.494;11.768;2023-03-16T08:58:50;9.13;;;4.05;;
69542;SDS011;56762;49.494;11.768;2023-03-16T09:01:20;8.43;;;3.90;;
69542;SDS011;56762;49.494;11.768;2023-03-16T09:03:47;12.10;;;5.60;;
69542;SDS011;56762;49.494;11.768;2023-03-16T09:06:16;10.85;;;4.93;;
69542;SDS011;56762;49.494;11.768;2023-03-16T09:08:44;8.95;;;4.80;;
69542;SDS011;56762;49.494;11.768;2023-03-16T09:11:13;7.28;;;3.50;;
69542;SDS011;56762;49.494;11.768;2023-03-16T09:13:42;6.53;;;3.35;;
69542;SDS011;56762;49.494;11.768;2023-03-16T09:16:11;8.37;;;3.23;;
69542;SDS011;56762;49.494;11.768;2023-03-16T09:18:42;8.88;;;3.90;;
69542;SDS011;56762;49.494;11.768;2023-03-16T09:21:10;7.85;;;3.97;;
69542;SDS011;56762;49.494;11.768;2023-03-16T09:23:39;8.20;;;3.83;;
69542;SDS011;56762;49.494;11.768;2023-03-16T09:26:08;7.75;;;3.38;;
69542;SDS011;56762;49.494;11.768;2023-03-16T09:28:38;7.07;;;3.30;;
69542;SDS011;56762;49.494;11.768;2023-03-16T09:31:08;7.03;;;3.13;;
69542;SDS011;56762;49.494;11.768;2023-03-16T09:33:40;7.35;;;3.15;;
69542;SDS011;56762;49.494;11.768;2023-03-16T09:36:09;10.63;;;4.05;;
69542;SDS011;56762;49.494;11.768;2023-03-16T09:38:39;9.45;;;3.42;;
69542;SDS011;56762;49.494;11.768;2023-03-16T09:41:08;6.67;;;3.00;;
69542;SDS011;56762;49.494;11.768;2023-03-16T09:43:44;6.70;;;3.10;;
69542;SDS011;56762;49.494;11.768;2023-03-16T09:46:23;8.55;;;4.07;;
69542;SDS011;56762;49.494;11.768;2023-03-16T09:48:54;7.35;;;3.47;;
69542;SDS011;56762;49.494;11.768;2023-03-16T09:51:28;9.05;;;3.30;;
69542;SDS011;56762;49.494;11.768;2023-03-16T09:54:04;6.93;;;3.27;;
69542;SDS011;56762;49.494;11.768;2023-03-16T09:56:41;8.18;;;3.80;;
69542;SDS011;56762;49.494;11.768;2023-03-16T09:59:12;8.13;;;3.78;;
69542;SDS011;56762;49.494;11.768;2023-03-16T10:01:45;7.25;;;3.05;;
69542;SDS011;56762;49.494;11.768;2023-03-16T10:04:26;6.22;;;3.00;;
69542;SDS011;56762;49.494;11.768;2023-03-16T10:07:15;8.03;;;3.50;;
69542;SDS011;56762;49.494;11.768;2023-03-16T10:09:51;7.13;;;3.25;;
69542;SDS011;56762;49.494;11.768;2023-03-16T10:12:24;8.63;;;3.97;;
69542;SDS011;56762;49.494;11.768;2023-03-16T10:14:56;9.13;;;4.28;;
69542;SDS011;56762;49.494;11.768;2023-03-16T10:17:31;11.10;;;3.22;;
69542;SDS011;56762;49.494;11.768;2023-03-16T10:20:04;6.83;;;2.57;;
69542;SDS011;56762;49.494;11.768;2023-03-16T10:22:36;6.22;;;2.60;;
69542;SDS011;56762;49.494;11.768;2023-03-16T10:25:11;8.95;;;3.80;;
69542;SDS011;56762;49.494;11.768;2023-03-16T10:27:45;6.13;;;2.70;;
69542;SDS011;56762;49.494;11.768;2023-03-16T10:30:18;7.30;;;3.33;;
69542;SDS011;56762;49.494;11.768;2023-03-16T10:32:48;6.70;;;3.23;;
69542;SDS011;56762;49.494;11.768;2023-03-16T10:35:21;8.63;;;4.25;;
69542;SDS011;56762;49.494;11.768;2023-03-16T10:38:05;15.10;;;7.72;;
69542;SDS011;56762;49.494;11.768;2023-03-16T10:40:35;9.43;;;3.50;;
69542;SDS011;56762;49.494;11.768;2023-03-16T10:43:05;7.75;;;3.53;;
69542;SDS011;56762;49.494;11.768;2023-03-16T10:45:34;5.97;;;2.87;;
69542;SDS011;56762;49.494;11.768;2023-03-16T10:48:06;6.25;;;2.83;;
69542;SDS011;56762;49.494;11.768;2023-03-16T10:50:35;7.88;;;3.33;;
69542;SDS011;56762;49.494;11.768;2023-03-16T10:53:02;7.45;;;3.10;;
69542;SDS011;56762;49.494;11.768;2023-03-16T10:55:42;6.22;;;2.75;;
69542;SDS011;56762;49.494;11.768;2023-03-16T10:58:21;5.17;;;2.13;;
69542;SDS011;56762;49.494;11.768;2023-03-16T11:00:50;6.32;;;2.47;;
69542;SDS011;56762;49.494;11.768;2023-03-16T11:03:20;6.55;;;2.70;;
69542;SDS011;56762;49.494;11.768;2023-03-16T11:05:57;5.68;;;2.20;;
69542;SDS011;56762;49.494;11.768;2023-03-16T11:08:31;5.45;;;2.40;;
69542;SDS011;56762;49.494;11.768;2023-03-16T11:11:07;4.93;;;2.23;;
69542;SDS011;56762;49.494;11.768;2023-03-16T11:13:37;5.53;;;2.65;;
69542;SDS011;56762;49.494;11.768;2023-03-16T11:16:14;7.90;;;3.35;;
69542;SDS011;56762;49.494;11.768;2023-03-16T11:18:49;6.05;;;2.58;;
69542;SDS011;56762;49.494;11.768;2023-03-16T11:21:21;6.72;;;2.72;;
69542;SDS011;56762;49.494;11.768;2023-03-16T11:23:58;5.33;;;2.40;;
69542;SDS011;56762;49.494;11.768;2023-03-16T11:26:30;5.65;;;2.60;;
69542;SDS011;56762;49.494;11.768;2023-03-16T11:29:01;6.57;;;2.75;;
69542;SDS011;56762;49.494;11.768;2023-03-16T11:31:38;8.13;;;3.00;;
69542;SDS011;56762;49.494;11.768;2023-03-16T11:34:12;6.97;;;3.40;;
69542;SDS011;56762;49.494;11.768;2023-03-16T11:36:46;5.37;;;2.40;;
69542;SDS011;56762;49.494;11.768;2023-03-16T11:39:22;5.07;;;2.45;;
69542;SDS011;56762;49.494;11.768;2023-03-16T11:41:59;5.82;;;1.83;;
69542;SDS011;56762;49.494;11.768;2023-03-16T11:44:42;5.28;;;2.15;;
69542;SDS011;56762;49.494;11.768;2023-03-16T11:47:23;4.40;;;2.30;;
69542;SDS011;56762;49.494;11.768;2023-03-16T11:50:15;4.93;;;2.10;;
69542;SDS011;56762;49.494;11.768;2023-03-16T11:52:48;4.18;;;1.60;;
69542;SDS011;56762;49.494;11.768;2023-03-16T11:55:27;5.55;;;1.85;;
69542;SDS011;56762;49.494;11.768;2023-03-16T11:58:03;5.65;;;2.13;;
69542;SDS011;56762;49.494;11.768;2023-03-16T12:00:45;4.65;;;2.03;;
69542;SDS011;56762;49.494;11.768;2023-03-16T12:03:32;4.33;;;1.73;;
69542;SDS011;56762;49.494;11.768;2023-03-16T12:06:12;5.38;;;2.25;;
69542;SDS011;56762;49.494;11.768;2023-03-16T12:08:53;4.65;;;2.22;;
69542;SDS011;56762;49.494;11.768;2023-03-16T12:11:37;5.70;;;2.20;;
69542;SDS011;56762;49.494;11.768;2023-03-16T12:14:13;5.88;;;2.00;;
69542;SDS011;56762;49.494;11.768;2023-03-16T12:16:46;5.33;;;2.33;;
69542;SDS011;56762;49.494;11.768;2023-03-16T12:19:19;6.38;;;2.10;;
69542;SDS011;56762;49.494;11.768;2023-03-16T12:21:54;5.47;;;1.90;;
69542;SDS011;56762;49.494;11.768;2023-03-16T12:24:30;4.00;;;1.88;;
69542;SDS011;56762;49.494;11.768;2023-03-16T12:27:07;4.28;;;2.00;;
69542;SDS011;56762;49.494;11.768;2023-03-16T12:29:43;5.17;;;2.00;;
69542;SDS011;56762;49.494;11.768;2023-03-16T12:32:32;6.72;;;2.50;;
69542;SDS011;56762;49.494;11.768;2023-03-16T12:35:07;5.13;;;2.25;;
69542;SDS011;56762;49.494;11.768;2023-03-16T12:37:48;5.53;;;1.90;;
69542;SDS011;56762;49.494;11.768;2023-03-16T12:40:29;4.22;;;1.95;;
69542;SDS011;56762;49.494;11.768;2023-03-16T12:43:05;6.70;;;2.63;;
69542;SDS011;56762;49.494;11.768;2023-03-16T12:45:44;4.18;;;1.90;;
69542;SDS011;56762;49.494;11.768;2023-03-16T12:48:19;4.18;;;1.70;;
69542;SDS011;56762;49.494;11.768;2023-03-16T12:50:53;5.20;;;1.90;;
69542;SDS011;56762;49.494;11.768;2023-03-16T12:53:38;3.25;;;1.67;;
69542;SDS011;56762;49.494;11.768;2023-03-16T12:56:09;3.40;;;1.60;;
69542;SDS011;56762;49.494;11.768;2023-03-16T12:58:44;4.70;;;2.05;;
69542;SDS011;56762;49.494;11.768;2023-03-16T13:01:14;3.65;;;1.63;;
69542;SDS011;56762;49.494;11.768;2023-03-16T13:03:46;3.85;;;1.73;;
69542;SDS011;56762;49.494;11.768;2023-03-16T13:06:16;4.90;;;1.63;;
69542;SDS011;56762;49.494;11.768;2023-03-16T13:08:46;4.50;;;2.00;;
69542;SDS011;56762;49.494;11.768;2023-03-16T13:11:16;3.65;;;1.70;;
69542;SDS011;56762;49.494;11.768;2023-03-16T13:14:04;5.63;;;1.80;;
69542;SDS011;56762;49.494;11.768;2023-03-16T13:16:36;4.15;;;1.52;;
69542;SDS011;56762;49.494;11.768;2023-03-16T13:19:24;2.88;;;1.00;;
69542;SDS011;56762;49.494;11.768;2023-03-16T13:22:00;2.00;;;0.80;;
69542;SDS011;56762;49.494;11.768;2023-03-16T13:24:36;4.22;;;1.63;;
69542;SDS011;56762;49.494;11.768;2023-03-16T13:27:11;7.95;;;1.83;;
69542;SDS011;56762;49.494;11.768;2023-03-16T13:29:52;3.90;;;1.50;;
69542;SDS011;56762;49.494;11.768;2023-03-16T13:32:22;2.22;;;1.00;;
69542;SDS011;56762;49.494;11.768;2023-03-16T13:34:51;2.70;;;1.00;;
69542;SDS011;56762;49.494;11.768;2023-03-16T13:37:20;2.47;;;0.73;;
69542;SDS011;56762;49.494;11.768;2023-03-16T13:39:50;2.17;;;0.73;;
69542;SDS011;56762;49.494;11.768;2023-03-16T13:42:20;3.45;;;1.25;;
69542;SDS011;56762;49.494;11.768;2023-03-16T13:44:52;2.28;;;0.90;;
69542;SDS011;56762;49.494;11.768;2023-03-16T13:47:24;3.00;;;1.10;;
69542;SDS011;56762;49.494;11.768;2023-03-16T13:49:53;2.67;;;1.10;;
69542;SDS011;56762;49.494;11.768;2023-03-16T13:52:24;2.70;;;0.90;;
69542;SDS011;56762;49.494;11.768;2023-03-16T13:54:54;2.15;;;0.90;;
69542;SDS011;56762;49.494;11.768;2023-03-16T13:57:23;3.20;;;1.08;;
69542;SDS011;56762;49.494;11.768;2023-03-16T14:00:00;3.20;;;1.00;;
69542;SDS011;56762;49.494;11.768;2023-03-16T14:02:34;2.97;;;1.00;;
69542;SDS011;56762;49.494;11.768;2023-03-16T14:05:08;3.03;;;0.80;;
69542;SDS011;56762;49.494;11.768;2023-03-16T14:07:38;3.58;;;1.45;;
69542;SDS011;56762;49.494;11.768;2023-03-16T14:10:08;4.28;;;0.90;;
69542;SDS011;56762;49.494;11.768;2023-03-16T14:12:37;2.57;;;0.93;;
69542;SDS011;56762;49.494;11.768;2023-03-16T14:15:07;2.70;;;0.80;;
69542;SDS011;56762;49.494;11.768;2023-03-16T14:17:37;3.28;;;1.27;;
69542;SDS011;56762;49.494;11.768;2023-03-16T14:20:05;2.75;;;1.10;;
69542;SDS011;56762;49.494;11.768;2023-03-16T14:22:40;3.20;;;1.13;;
69542;SDS011;56762;49.494;11.768;2023-03-16T14:25:09;2.77;;;1.00;;
69542;SDS011;56762;49.494;11.768;2023-03-16T14:27:48;2.15;;;0.88;;
69542;SDS011;56762;49.494;11.768;2023-03-16T14:30:26;3.35;;;1.45;;
69542;SDS011;56762;49.494;11.768;2023-03-16T14:32:56;3.97;;;1.35;;
69542;SDS011;56762;49.494;11.768;2023-03-16T14:35:26;3.08;;;1.33;;
69542;SDS011;56762;49.494;11.768;2023-03-16T14:37:55;2.80;;;1.07;;
69542;SDS011;56762;49.494;11.768;2023-03-16T14:40:24;2.80;;;1.20;;
69542;SDS011;56762;49.494;11.768;2023-03-16T14:42:54;3.92;;;1.42;;
69542;SDS011;56762;49.494;11.768;2023-03-16T14:45:28;3.33;;;1.00;;
69542;SDS011;56762;49.494;11.768;2023-03-16T14:48:00;2.67;;;0.90;;
69542;SDS011;56762;49.494;11.768;2023-03-16T14:50:31;2.37;;;1.00;;